Terminal Aerodrome Forecast
Issued by NWS

Home | Current Version | Previous Version | Text Only | Print | Product List | Glossary On
Versions: 1 2 3 4 5 6 7 8 9 10 11 12 13
438
FTUS42 KMLB 100533
TAFISM
TAF
KISM 100533Z 1006/1106 28008KT P6SM BKN050 BKN250
     FM101400 28016G23KT P6SM SKC
     FM110100 31006KT P6SM SKC
      AMD NOT SKED TIL 101200=

USA.gov is the U.S. government's official web portal to all federal, state and local government web resources and services.